메인 페이지
METAR-TAF:

METAR-TAF

공항 :

팔마데마요르카, 스페인

위도: 39-33N, 경도: 002-44E, 고도: 4m

현재 날씨관측

예보는 35분 전, 09:00시(UTC)에 발표되었습니다.
무풍
온도 10°C
습도 93%
기압 1026 hPa
시정 10km 이상
고도 2400ft 상공 구름 조금

METAR: LEPA 180900Z 00000KT 9999 FEW024 10/09 Q1026 NOSIG

시각: 10:35 (09:35 UTC)

예보

예보는 4 시간 35분 전, 05:00시(UTC)에 발표되었습니다.
예보 대상 시간: 18일 06시부터 19일 06시까지 (UTC)
여러 방향의 바람 3kt
시정 10km 이상
고도 3000ft 상공 구름 많음
전환 중
18일 10시부터 18일 12시까지 (UTC)
남서8kt
전환 중
18일 18시부터 18일 20시까지 (UTC)
여러 방향의 바람 3kt

TAF: LEPA 180500Z 1806/1906 VRB03KT 9999 BKN030 TX15/1812Z TN08/1806Z BECMG 1810/1812 22008KT BECMG 1818/1820 VRB03KT

4,000개 이상의 공항 관측 자료 및 예보 (METAR 및 TAF 보고).

지도상에서 검색 가능한 기상관측소가 노란 점과 빨간 점으로 표시되어 있습니다.

기상관측소 명을 보려면 표시 위로 마우스를 이동하세요.

날씨 관측과 예보를 보려면 클릭하세요.

지도 변경 : 확대하려면 엑스 표시가 있는 녹색 버튼, 축소하려면 빼기 표시가 있는 녹색 버튼, 다음 페이지의 지도를 보려면 녹색 화살표를 클릭하세요.


METAR-TAF: